sensor_id;sensor_type;location;lat;lon;timestamp;pressure;altitude;pressure_sealevel;temperature;humidity
74960;BME280;63518;49.572;1.106;2024-02-14T00:00:19;99726.28;;;8.54;62.67
74960;BME280;63518;49.572;1.106;2024-02-14T00:02:47;99705.09;;;8.39;63.66
74960;BME280;63518;49.572;1.106;2024-02-14T00:05:17;99733.16;;;8.31;64.48
74960;BME280;63518;49.572;1.106;2024-02-14T00:07:44;99738.94;;;8.35;62.98
74960;BME280;63518;49.572;1.106;2024-02-14T00:10:11;99745.28;;;8.40;63.35
74960;BME280;63518;49.572;1.106;2024-02-14T00:12:38;99724.09;;;8.36;63.49
74960;BME280;63518;49.572;1.106;2024-02-14T00:15:06;99731.81;;;8.49;64.37
74960;BME280;63518;49.572;1.106;2024-02-14T00:17:34;99732.31;;;8.31;63.65
74960;BME280;63518;49.572;1.106;2024-02-14T00:20:02;99720.22;;;8.22;62.74
74960;BME280;63518;49.572;1.106;2024-02-14T00:22:30;99726.84;;;8.36;62.39
74960;BME280;63518;49.572;1.106;2024-02-14T00:24:57;99708.97;;;8.28;62.83
74960;BME280;63518;49.572;1.106;2024-02-14T00:27:24;99711.72;;;8.44;61.98
74960;BME280;63518;49.572;1.106;2024-02-14T00:29:52;99721.88;;;8.43;62.40
74960;BME280;63518;49.572;1.106;2024-02-14T00:32:20;99728.22;;;8.49;63.27
74960;BME280;63518;49.572;1.106;2024-02-14T00:34:47;99710.88;;;8.38;61.21
74960;BME280;63518;49.572;1.106;2024-02-14T00:37:16;99705.09;;;8.29;61.87
74960;BME280;63518;49.572;1.106;2024-02-14T00:39:43;99729.59;;;8.56;60.81
74960;BME280;63518;49.572;1.106;2024-02-14T00:42:10;99741.69;;;8.45;61.12
74960;BME280;63518;49.572;1.106;2024-02-14T00:44:37;99725.44;;;8.38;60.48
74960;BME280;63518;49.572;1.106;2024-02-14T00:47:04;99728.75;;;8.61;60.89
74960;BME280;63518;49.572;1.106;2024-02-14T00:49:34;99738.13;;;8.65;60.74
74960;BME280;63518;49.572;1.106;2024-02-14T00:52:01;99724.91;;;8.57;61.83
74960;BME280;63518;49.572;1.106;2024-02-14T00:54:28;99725.97;;;8.71;62.48
74960;BME280;63518;49.572;1.106;2024-02-14T00:56:55;99724.06;;;8.61;62.78
74960;BME280;63518;49.572;1.106;2024-02-14T00:59:22;99730.69;;;8.65;62.66
74960;BME280;63518;49.572;1.106;2024-02-14T01:01:48;99731.81;;;8.49;64.37
74960;BME280;63518;49.572;1.106;2024-02-14T01:04:15;99711.69;;;8.59;63.43
74960;BME280;63518;49.572;1.106;2024-02-14T01:06:42;99729.28;;;8.68;63.68
74960;BME280;63518;49.572;1.106;2024-02-14T01:09:09;99719.91;;;8.79;62.82
74960;BME280;63518;49.572;1.106;2024-02-14T01:11:36;99724.34;;;8.65;64.73
74960;BME280;63518;49.572;1.106;2024-02-14T01:14:05;99731.50;;;8.66;64.05
74960;BME280;63518;49.572;1.106;2024-02-14T01:16:31;99729.81;;;8.85;64.63
74960;BME280;63518;49.572;1.106;2024-02-14T01:18:58;99728.97;;;8.95;64.52
74960;BME280;63518;49.572;1.106;2024-02-14T01:21:25;99734.47;;;8.95;64.37
74960;BME280;63518;49.572;1.106;2024-02-14T01:23:52;99735.59;;;8.79;66.94
74960;BME280;63518;49.572;1.106;2024-02-14T01:26:19;99747.72;;;8.83;66.94
74960;BME280;63518;49.572;1.106;2024-02-14T01:28:47;99743.03;;;8.78;65.86
74960;BME280;63518;49.572;1.106;2024-02-14T01:31:15;99747.19;;;8.65;66.61
74960;BME280;63518;49.572;1.106;2024-02-14T01:33:42;99747.16;;;8.86;65.22
74960;BME280;63518;49.572;1.106;2024-02-14T01:36:10;99737.78;;;8.87;65.36
74960;BME280;63518;49.572;1.106;2024-02-14T01:38:37;99724.06;;;8.77;65.64
74960;BME280;63518;49.572;1.106;2024-02-14T01:41:04;99749.91;;;8.96;64.06
74960;BME280;63518;49.572;1.106;2024-02-14T01:43:31;99750.47;;;8.78;64.21
74960;BME280;63518;49.572;1.106;2024-02-14T01:46:06;99740.53;;;8.92;63.54
74960;BME280;63518;49.572;1.106;2024-02-14T01:48:34;99749.63;;;8.98;64.51
74960;BME280;63518;49.572;1.106;2024-02-14T01:51:03;99749.38;;;8.84;65.45
74960;BME280;63518;49.572;1.106;2024-02-14T01:53:31;99760.94;;;8.96;64.05
74960;BME280;63518;49.572;1.106;2024-02-14T01:55:59;99754.31;;;8.92;65.45
74960;BME280;63518;49.572;1.106;2024-02-14T01:58:27;99771.91;;;9.01;65.38
74960;BME280;63518;49.572;1.106;2024-02-14T02:00:54;99763.69;;;8.96;65.06
74960;BME280;63518;49.572;1.106;2024-02-14T02:03:24;99759.25;;;9.05;65.26
74960;BME280;63518;49.572;1.106;2024-02-14T02:05:52;99776.81;;;9.24;67.00
74960;BME280;63518;49.572;1.106;2024-02-14T02:08:21;99774.66;;;9.11;67.91
74960;BME280;63518;49.572;1.106;2024-02-14T02:10:48;99788.94;;;9.18;68.04
74960;BME280;63518;49.572;1.106;2024-02-14T02:13:16;99778.81;;;9.04;68.22
74960;BME280;63518;49.572;1.106;2024-02-14T02:15:43;99761.41;;;9.18;68.58
74960;BME280;63518;49.572;1.106;2024-02-14T02:18:11;99769.94;;;9.17;68.66
74960;BME280;63518;49.572;1.106;2024-02-14T02:20:38;99755.09;;;9.08;71.18
74960;BME280;63518;49.572;1.106;2024-02-14T02:23:05;99753.41;;;9.17;69.20
74960;BME280;63518;49.572;1.106;2024-02-14T02:25:36;99758.38;;;9.20;69.28
74960;BME280;63518;49.572;1.106;2024-02-14T02:28:02;99748.19;;;9.10;69.22
74960;BME280;63518;49.572;1.106;2024-02-14T02:30:29;99763.03;;;9.40;70.59
74960;BME280;63518;49.572;1.106;2024-02-14T02:32:56;99768.00;;;9.43;71.07
74960;BME280;63518;49.572;1.106;2024-02-14T02:35:23;99762.50;;;9.17;71.66
74960;BME280;63518;49.572;1.106;2024-02-14T02:37:51;99761.97;;;9.10;72.77
74960;BME280;63518;49.572;1.106;2024-02-14T02:40:19;99774.91;;;9.30;72.07
74960;BME280;63518;49.572;1.106;2024-02-14T02:42:47;99776.28;;;9.28;71.40
74960;BME280;63518;49.572;1.106;2024-02-14T02:45:17;99769.09;;;9.27;72.36
74960;BME280;63518;49.572;1.106;2024-02-14T02:47:43;99767.19;;;9.32;71.13
74960;BME280;63518;49.572;1.106;2024-02-14T02:50:10;99762.22;;;9.34;72.42
74960;BME280;63518;49.572;1.106;2024-02-14T02:52:37;99765.19;;;9.48;72.54
74960;BME280;63518;49.572;1.106;2024-02-14T02:55:05;99750.94;;;9.15;73.37
74960;BME280;63518;49.572;1.106;2024-02-14T02:57:32;99761.66;;;9.37;71.75
74960;BME280;63518;49.572;1.106;2024-02-14T03:00:00;99764.41;;;9.37;71.88
74960;BME280;63518;49.572;1.106;2024-02-14T03:02:27;99758.38;;;9.30;71.39
74960;BME280;63518;49.572;1.106;2024-02-14T03:04:54;99752.81;;;9.40;70.92
74960;BME280;63518;49.572;1.106;2024-02-14T03:07:21;99761.94;;;9.36;69.98
74960;BME280;63518;49.572;1.106;2024-02-14T03:09:50;99752.00;;;9.45;69.89
74960;BME280;63518;49.572;1.106;2024-02-14T03:12:16;99751.94;;;9.50;68.92
74960;BME280;63518;49.572;1.106;2024-02-14T03:14:45;99738.25;;;9.24;68.93
74960;BME280;63518;49.572;1.106;2024-02-14T03:17:13;99719.50;;;9.27;67.90
74960;BME280;63518;49.572;1.106;2024-02-14T03:19:40;99736.28;;;9.40;65.85
74960;BME280;63518;49.572;1.106;2024-02-14T03:22:07;99716.72;;;9.42;64.73
74960;BME280;63518;49.572;1.106;2024-02-14T03:24:35;99729.44;;;9.38;66.13
74960;BME280;63518;49.572;1.106;2024-02-14T03:27:04;99744.84;;;9.39;64.44
74960;BME280;63518;49.572;1.106;2024-02-14T03:29:32;99737.69;;;9.38;63.89
74960;BME280;63518;49.572;1.106;2024-02-14T03:31:59;99742.09;;;9.44;63.78
74960;BME280;63518;49.572;1.106;2024-02-14T03:34:31;99737.41;;;9.44;62.27
74960;BME280;63518;49.572;1.106;2024-02-14T03:37:00;99735.75;;;9.33;63.87
74960;BME280;63518;49.572;1.106;2024-02-14T03:39:29;99719.25;;;9.28;63.79
74960;BME280;63518;49.572;1.106;2024-02-14T03:41:57;99744.28;;;9.42;62.85
74960;BME280;63518;49.572;1.106;2024-02-14T03:44:23;99746.19;;;9.41;62.45
74960;BME280;63518;49.572;1.106;2024-02-14T03:46:50;99729.16;;;9.29;62.43
74960;BME280;63518;49.572;1.106;2024-02-14T03:49:17;99719.25;;;9.18;60.15
74960;BME280;63518;49.572;1.106;2024-02-14T03:51:44;99724.75;;;9.23;60.09
74960;BME280;63518;49.572;1.106;2024-02-14T03:54:10;99736.28;;;9.45;58.56
74960;BME280;63518;49.572;1.106;2024-02-14T03:56:38;99725.56;;;9.39;58.64
74960;BME280;63518;49.572;1.106;2024-02-14T03:59:05;99724.75;;;9.28;56.65
74960;BME280;63518;49.572;1.106;2024-02-14T04:01:33;99742.56;;;9.56;55.24
74960;BME280;63518;49.572;1.106;2024-02-14T04:03:59;99735.22;;;9.36;56.37
74960;BME280;63518;49.572;1.106;2024-02-14T04:06:27;99739.28;;;9.49;54.52
74960;BME280;63518;49.572;1.106;2024-02-14T04:08:54;99751.41;;;9.48;54.29
74960;BME280;63518;49.572;1.106;2024-02-14T04:11:21;99747.59;;;9.39;54.45
74960;BME280;63518;49.572;1.106;2024-02-14T04:13:47;99752.28;;;9.43;54.54
74960;BME280;63518;49.572;1.106;2024-02-14T04:16:14;99749.47;;;9.54;55.26
74960;BME280;63518;49.572;1.106;2024-02-14T04:18:42;99756.69;;;9.44;55.38
74960;BME280;63518;49.572;1.106;2024-02-14T04:21:09;99746.19;;;9.51;55.27
74960;BME280;63518;49.572;1.106;2024-02-14T04:23:36;99747.31;;;9.45;54.97
74960;BME280;63518;49.572;1.106;2024-02-14T04:26:03;99749.72;;;9.62;54.95
74960;BME280;63518;49.572;1.106;2024-02-14T04:28:30;99747.50;;;9.64;56.63
74960;BME280;63518;49.572;1.106;2024-02-14T04:30:57;99747.19;;;9.66;57.13
74960;BME280;63518;49.572;1.106;2024-02-14T04:33:24;99751.38;;;9.58;58.26
74960;BME280;63518;49.572;1.106;2024-02-14T04:35:52;99759.63;;;9.63;59.03
74960;BME280;63518;49.572;1.106;2024-02-14T04:38:19;99758.28;;;9.56;58.22
74960;BME280;63518;49.572;1.106;2024-02-14T04:40:46;99761.25;;;9.64;58.50
74960;BME280;63518;49.572;1.106;2024-02-14T04:43:13;99743.44;;;9.51;57.28
74960;BME280;63518;49.572;1.106;2024-02-14T04:45:39;99762.06;;;9.70;55.90
74960;BME280;63518;49.572;1.106;2024-02-14T04:48:06;99748.88;;;9.62;56.39
74960;BME280;63518;49.572;1.106;2024-02-14T04:50:34;99761.31;;;9.54;56.97
74960;BME280;63518;49.572;1.106;2024-02-14T04:53:01;99760.72;;;9.67;54.72
74960;BME280;63518;49.572;1.106;2024-02-14T04:55:29;99751.28;;;9.73;56.64
74960;BME280;63518;49.572;1.106;2024-02-14T04:57:56;99759.41;;;9.49;57.08
74960;BME280;63518;49.572;1.106;2024-02-14T05:00:22;99753.59;;;9.56;55.72
74960;BME280;63518;49.572;1.106;2024-02-14T05:02:49;99743.19;;;9.43;54.08
74960;BME280;63518;49.572;1.106;2024-02-14T05:05:17;99749.19;;;9.55;53.21
74960;BME280;63518;49.572;1.106;2024-02-14T05:07:44;99758.28;;;9.50;53.83
74960;BME280;63518;49.572;1.106;2024-02-14T05:10:11;99761.31;;;9.59;53.69
74960;BME280;63518;49.572;1.106;2024-02-14T05:12:37;99767.94;;;9.53;52.44
74960;BME280;63518;49.572;1.106;2024-02-14T05:15:06;99766.53;;;9.56;52.95
74960;BME280;63518;49.572;1.106;2024-02-14T05:17:33;99768.41;;;9.75;52.57
74960;BME280;63518;49.572;1.106;2024-02-14T05:20:00;99752.22;;;9.54;54.41
74960;BME280;63518;49.572;1.106;2024-02-14T05:22:27;99753.81;;;9.65;54.93
74960;BME280;63518;49.572;1.106;2024-02-14T05:24:54;99747.47;;;9.69;54.91
74960;BME280;63518;49.572;1.106;2024-02-14T05:27:20;99760.69;;;9.72;55.41
74960;BME280;63518;49.572;1.106;2024-02-14T05:29:47;99762.28;;;9.84;56.24
74960;BME280;63518;49.572;1.106;2024-02-14T05:32:14;99736.09;;;9.81;56.24
74960;BME280;63518;49.572;1.106;2024-02-14T05:34:41;99728.31;;;9.93;59.14
74960;BME280;63518;49.572;1.106;2024-02-14T05:37:07;99738.53;;;9.88;59.01
74960;BME280;63518;49.572;1.106;2024-02-14T05:39:34;99750.94;;;9.90;59.72
74960;BME280;63518;49.572;1.106;2024-02-14T05:42:01;99751.78;;;9.86;62.71
74960;BME280;63518;49.572;1.106;2024-02-14T05:44:29;99749.06;;;9.80;60.87
74960;BME280;63518;49.572;1.106;2024-02-14T05:46:57;99752.03;;;9.89;62.30
74960;BME280;63518;49.572;1.106;2024-02-14T05:49:23;99740.75;;;9.91;62.59
74960;BME280;63518;49.572;1.106;2024-02-14T05:51:51;99742.25;;;10.12;62.95
74960;BME280;63518;49.572;1.106;2024-02-14T05:54:19;99737.81;;;9.72;65.02
74960;BME280;63518;49.572;1.106;2024-02-14T05:56:46;99748.47;;;9.89;63.58
74960;BME280;63518;49.572;1.106;2024-02-14T05:59:13;99751.94;;;10.04;63.91
74960;BME280;63518;49.572;1.106;2024-02-14T06:01:40;99759.50;;;9.89;65.81
74960;BME280;63518;49.572;1.106;2024-02-14T06:04:07;99781.31;;;9.85;65.94
74960;BME280;63518;49.572;1.106;2024-02-14T06:06:34;99776.22;;;10.07;66.05
74960;BME280;63518;49.572;1.106;2024-02-14T06:09:00;99778.19;;;10.02;67.75
74960;BME280;63518;49.572;1.106;2024-02-14T06:11:27;99783.19;;;9.90;67.09
74960;BME280;63518;49.572;1.106;2024-02-14T06:13:54;99778.41;;;10.05;68.06
74960;BME280;63518;49.572;1.106;2024-02-14T06:16:21;99779.59;;;9.89;68.86
74960;BME280;63518;49.572;1.106;2024-02-14T06:18:47;99769.88;;;10.07;67.51
74960;BME280;63518;49.572;1.106;2024-02-14T06:21:15;99762.44;;;10.02;67.44
74960;BME280;63518;49.572;1.106;2024-02-14T06:23:41;99776.34;;;9.82;65.58
74960;BME280;63518;49.572;1.106;2024-02-14T06:26:08;99773.34;;;9.73;62.57
74960;BME280;63518;49.572;1.106;2024-02-14T06:28:35;99777.44;;;9.86;61.66
74960;BME280;63518;49.572;1.106;2024-02-14T06:31:02;99779.81;;;10.08;60.87
74960;BME280;63518;49.572;1.106;2024-02-14T06:33:28;99768.25;;;10.06;61.22
74960;BME280;63518;49.572;1.106;2024-02-14T06:35:56;99784.31;;;9.89;60.47
74960;BME280;63518;49.572;1.106;2024-02-14T06:38:23;99779.38;;;9.86;60.31
74960;BME280;63518;49.572;1.106;2024-02-14T06:40:50;99774.69;;;9.86;57.65
74960;BME280;63518;49.572;1.106;2024-02-14T06:43:17;99773.25;;;9.94;57.54
74960;BME280;63518;49.572;1.106;2024-02-14T06:45:44;99778.72;;;10.04;58.17
74960;BME280;63518;49.572;1.106;2024-02-14T06:48:11;99781.47;;;10.04;56.86
74960;BME280;63518;49.572;1.106;2024-02-14T06:50:38;99779.66;;;10.28;58.98
74960;BME280;63518;49.572;1.106;2024-02-14T06:53:06;99783.31;;;10.14;61.43
74960;BME280;63518;49.572;1.106;2024-02-14T06:55:33;99792.50;;;10.04;61.62
74960;BME280;63518;49.572;1.106;2024-02-14T06:58:00;99788.91;;;10.03;61.31
74960;BME280;63518;49.572;1.106;2024-02-14T07:00:27;99803.09;;;9.82;61.46
74960;BME280;63518;49.572;1.106;2024-02-14T07:02:55;99786.69;;;10.05;60.57
74960;BME280;63518;49.572;1.106;2024-02-14T07:05:22;99792.78;;;10.07;61.82
74960;BME280;63518;49.572;1.106;2024-02-14T07:07:49;99800.84;;;9.89;62.19
74960;BME280;63518;49.572;1.106;2024-02-14T07:10:16;99797.50;;;9.97;62.21
74960;BME280;63518;49.572;1.106;2024-02-14T07:12:43;99789.56;;;9.85;60.78
74960;BME280;63518;49.572;1.106;2024-02-14T07:15:10;99798.31;;;10.02;61.39
74960;BME280;63518;49.572;1.106;2024-02-14T07:17:38;99815.59;;;10.13;61.80
74960;BME280;63518;49.572;1.106;2024-02-14T07:20:07;99815.13;;;10.06;62.35
74960;BME280;63518;49.572;1.106;2024-02-14T07:22:37;99808.50;;;10.07;62.21
74960;BME280;63518;49.572;1.106;2024-02-14T07:25:04;99824.41;;;10.20;63.47
74960;BME280;63518;49.572;1.106;2024-02-14T07:27:31;99836.09;;;9.97;64.69
74960;BME280;63518;49.572;1.106;2024-02-14T07:29:58;99813.50;;;9.95;63.46
74960;BME280;63518;49.572;1.106;2024-02-14T07:32:25;99811.03;;;9.98;63.26
74960;BME280;63518;49.572;1.106;2024-02-14T07:34:54;99829.75;;;10.06;65.30
74960;BME280;63518;49.572;1.106;2024-02-14T07:37:21;99840.41;;;10.18;65.11
74960;BME280;63518;49.572;1.106;2024-02-14T07:39:48;99834.38;;;10.11;65.02
74960;BME280;63518;49.572;1.106;2024-02-14T07:42:14;99843.03;;;10.44;68.37
74960;BME280;63518;49.572;1.106;2024-02-14T07:44:41;99848.13;;;10.21;69.09
74960;BME280;63518;49.572;1.106;2024-02-14T07:47:08;99834.59;;;10.25;68.34
74960;BME280;63518;49.572;1.106;2024-02-14T07:49:35;99861.28;;;10.34;70.44
74960;BME280;63518;49.572;1.106;2024-02-14T07:52:03;99842.88;;;10.20;70.08
74960;BME280;63518;49.572;1.106;2024-02-14T07:54:29;99859.34;;;10.40;71.82
74960;BME280;63518;49.572;1.106;2024-02-14T07:56:56;99844.63;;;10.55;72.96
74960;BME280;63518;49.572;1.106;2024-02-14T07:59:23;99864.16;;;10.63;74.15
74960;BME280;63518;49.572;1.106;2024-02-14T08:01:50;99852.69;;;10.46;75.82
74960;BME280;63518;49.572;1.106;2024-02-14T08:04:17;99849.19;;;10.30;76.63
74960;BME280;63518;49.572;1.106;2024-02-14T08:06:47;99835.66;;;10.29;75.71
74960;BME280;63518;49.572;1.106;2024-02-14T08:09:17;99838.00;;;10.51;76.12
74960;BME280;63518;49.572;1.106;2024-02-14T08:11:43;99857.84;;;10.53;77.31
74960;BME280;63518;49.572;1.106;2024-02-14T08:14:10;99857.41;;;10.41;78.81
74960;BME280;63518;49.572;1.106;2024-02-14T08:16:39;99852.09;;;10.49;79.69
74960;BME280;63518;49.572;1.106;2024-02-14T08:19:06;99848.50;;;10.54;81.01
74960;BME280;63518;49.572;1.106;2024-02-14T08:21:33;99855.38;;;10.51;80.99
74960;BME280;63518;49.572;1.106;2024-02-14T08:24:00;99862.31;;;10.49;80.83
74960;BME280;63518;49.572;1.106;2024-02-14T08:26:28;99860.34;;;10.54;81.32
74960;BME280;63518;49.572;1.106;2024-02-14T08:28:55;99843.53;;;10.51;83.26
74960;BME280;63518;49.572;1.106;2024-02-14T08:31:23;99843.25;;;10.52;83.25
74960;BME280;63518;49.572;1.106;2024-02-14T08:33:49;99869.28;;;10.36;83.69
74960;BME280;63518;49.572;1.106;2024-02-14T08:36:17;99870.84;;;10.52;83.86
74960;BME280;63518;49.572;1.106;2024-02-14T08:38:46;99875.19;;;10.63;83.74
74960;BME280;63518;49.572;1.106;2024-02-14T08:41:14;99870.63;;;10.44;84.32
74960;BME280;63518;49.572;1.106;2024-02-14T08:43:41;99861.69;;;10.62;85.74
74960;BME280;63518;49.572;1.106;2024-02-14T08:46:13;99861.13;;;10.60;84.77
74960;BME280;63518;49.572;1.106;2024-02-14T08:48:41;99855.78;;;10.79;85.89
74960;BME280;63518;49.572;1.106;2024-02-14T08:51:15;99824.91;;;10.67;86.41
74960;BME280;63518;49.572;1.106;2024-02-14T08:53:44;99840.66;;;10.71;86.40
74960;BME280;63518;49.572;1.106;2024-02-14T08:56:13;99841.19;;;10.73;87.15
74960;BME280;63518;49.572;1.106;2024-02-14T08:58:40;99848.28;;;10.84;88.70
74960;BME280;63518;49.572;1.106;2024-02-14T09:01:07;99848.06;;;10.76;89.41
74960;BME280;63518;49.572;1.106;2024-02-14T09:03:44;99860.06;;;10.56;89.22
74960;BME280;63518;49.572;1.106;2024-02-14T09:06:17;99877.38;;;10.72;90.22
74960;BME280;63518;49.572;1.106;2024-02-14T09:08:48;99877.81;;;10.84;90.98
74960;BME280;63518;49.572;1.106;2024-02-14T09:11:17;99874.81;;;10.85;90.67
74960;BME280;63518;49.572;1.106;2024-02-14T09:13:45;99875.53;;;10.96;93.18
74960;BME280;63518;49.572;1.106;2024-02-14T09:16:14;99891.63;;;10.84;94.33
74960;BME280;63518;49.572;1.106;2024-02-14T09:18:42;99877.06;;;10.78;95.18
74960;BME280;63518;49.572;1.106;2024-02-14T09:21:09;99863.88;;;10.70;95.36
74960;BME280;63518;49.572;1.106;2024-02-14T09:23:36;99891.75;;;10.63;95.67
74960;BME280;63518;49.572;1.106;2024-02-14T09:26:06;99877.06;;;10.78;94.89
74960;BME280;63518;49.572;1.106;2024-02-14T09:28:33;99857.75;;;10.73;96.46
74960;BME280;63518;49.572;1.106;2024-02-14T09:31:01;99883.56;;;10.93;97.00
74960;BME280;63518;49.572;1.106;2024-02-14T09:33:30;99879.25;;;10.81;99.55
74960;BME280;63518;49.572;1.106;2024-02-14T09:35:57;99881.19;;;10.76;100.00
74960;BME280;63518;49.572;1.106;2024-02-14T09:38:24;99864.97;;;10.64;100.00
74960;BME280;63518;49.572;1.106;2024-02-14T09:40:53;99879.72;;;10.94;100.00
74960;BME280;63518;49.572;1.106;2024-02-14T09:43:43;99883.50;;;11.03;100.00
74960;BME280;63518;49.572;1.106;2024-02-14T09:46:14;99880.31;;;10.85;100.00
74960;BME280;63518;49.572;1.106;2024-02-14T09:48:44;99881.97;;;11.21;100.00
74960;BME280;63518;49.572;1.106;2024-02-14T09:51:12;99876.56;;;11.05;100.00
74960;BME280;63518;49.572;1.106;2024-02-14T09:53:40;99874.09;;;11.04;100.00
74960;BME280;63518;49.572;1.106;2024-02-14T09:56:10;99885.13;;;11.09;100.00
74960;BME280;63518;49.572;1.106;2024-02-14T09:58:40;99889.09;;;11.27;100.00
74960;BME280;63518;49.572;1.106;2024-02-14T10:01:07;99894.44;;;11.18;100.00
74960;BME280;63518;49.572;1.106;2024-02-14T10:03:34;99864.31;;;10.82;100.00
74960;BME280;63518;49.572;1.106;2024-02-14T10:06:02;99861.78;;;11.20;100.00
74960;BME280;63518;49.572;1.106;2024-02-14T10:08:31;99891.16;;;11.40;100.00
74960;BME280;63518;49.572;1.106;2024-02-14T10:10:57;99892.28;;;11.39;100.00
74960;BME280;63518;49.572;1.106;2024-02-14T10:13:30;99891.72;;;11.42;100.00
74960;BME280;63518;49.572;1.106;2024-02-14T10:15:58;99881.41;;;11.47;100.00
74960;BME280;63518;49.572;1.106;2024-02-14T10:18:25;99888.47;;;11.35;100.00
74960;BME280;63518;49.572;1.106;2024-02-14T10:20:57;99884.09;;;11.29;100.00
74960;BME280;63518;49.572;1.106;2024-02-14T10:23:26;99890.34;;;11.39;100.00
74960;BME280;63518;49.572;1.106;2024-02-14T10:25:54;99924.13;;;11.31;100.00
74960;BME280;63518;49.572;1.106;2024-02-14T10:28:22;99894.97;;;11.15;100.00
74960;BME280;63518;49.572;1.106;2024-02-14T10:31:01;99891.75;;;11.37;100.00
74960;BME280;63518;49.572;1.106;2024-02-14T10:33:28;99901.00;;;11.22;100.00
74960;BME280;63518;49.572;1.106;2024-02-14T10:35:59;99909.16;;;11.37;100.00
74960;BME280;63518;49.572;1.106;2024-02-14T10:38:30;99921.88;;;11.38;100.00
74960;BME280;63518;49.572;1.106;2024-02-14T10:40:59;99919.41;;;11.37;100.00
74960;BME280;63518;49.572;1.106;2024-02-14T10:43:27;99902.44;;;11.14;100.00
74960;BME280;63518;49.572;1.106;2024-02-14T10:45:54;99921.25;;;11.12;100.00
74960;BME280;63518;49.572;1.106;2024-02-14T10:48:22;99933.63;;;11.20;100.00
74960;BME280;63518;49.572;1.106;2024-02-14T10:50:54;99925.31;;;11.25;100.00
74960;BME280;63518;49.572;1.106;2024-02-14T10:53:22;99941.84;;;11.30;100.00
74960;BME280;63518;49.572;1.106;2024-02-14T10:55:51;99930.34;;;11.18;100.00
74960;BME280;63518;49.572;1.106;2024-02-14T10:58:18;99941.00;;;11.30;100.00
74960;BME280;63518;49.572;1.106;2024-02-14T11:00:46;99949.31;;;11.30;100.00
74960;BME280;63518;49.572;1.106;2024-02-14T11:03:14;99943.72;;;11.01;100.00
74960;BME280;63518;49.572;1.106;2024-02-14T11:05:44;99943.13;;;11.43;100.00
74960;BME280;63518;49.572;1.106;2024-02-14T11:08:24;99941.28;;;11.33;100.00
74960;BME280;63518;49.572;1.106;2024-02-14T11:10:54;99942.13;;;11.29;100.00
74960;BME280;63518;49.572;1.106;2024-02-14T11:13:26;99953.78;;;11.26;100.00
74960;BME280;63518;49.572;1.106;2024-02-14T11:15:54;99945.97;;;11.33;100.00
74960;BME280;63518;49.572;1.106;2024-02-14T11:18:25;99955.28;;;11.08;100.00
74960;BME280;63518;49.572;1.106;2024-02-14T11:20:53;99949.91;;;11.27;100.00
74960;BME280;63518;49.572;1.106;2024-02-14T11:23:23;99959.03;;;11.22;100.00
74960;BME280;63518;49.572;1.106;2024-02-14T11:25:50;99939.88;;;11.36;100.00
74960;BME280;63518;49.572;1.106;2024-02-14T11:28:19;99927.78;;;11.27;97.21
74960;BME280;63518;49.572;1.106;2024-02-14T11:30:50;99942.22;;;11.47;99.49
74960;BME280;63518;49.572;1.106;2024-02-14T11:33:23;99932.72;;;11.30;100.00
74960;BME280;63518;49.572;1.106;2024-02-14T11:35:52;99932.56;;;11.50;99.02
74960;BME280;63518;49.572;1.106;2024-02-14T11:38:21;99922.53;;;11.54;100.00
74960;BME280;63518;49.572;1.106;2024-02-14T11:40:48;99930.53;;;11.56;100.00
74960;BME280;63518;49.572;1.106;2024-02-14T11:43:18;99931.41;;;11.56;100.00
74960;BME280;63518;49.572;1.106;2024-02-14T11:45:47;99924.94;;;11.66;100.00
74960;BME280;63518;49.572;1.106;2024-02-14T11:48:16;99933.13;;;11.76;100.00
74960;BME280;63518;49.572;1.106;2024-02-14T11:50:45;99917.50;;;11.61;100.00
74960;BME280;63518;49.572;1.106;2024-02-14T11:53:12;99923.81;;;11.67;100.00
74960;BME280;63518;49.572;1.106;2024-02-14T11:55:40;99931.72;;;11.50;100.00
74960;BME280;63518;49.572;1.106;2024-02-14T11:58:11;99939.88;;;11.65;100.00
74960;BME280;63518;49.572;1.106;2024-02-14T12:00:40;99943.53;;;11.84;100.00
74960;BME280;63518;49.572;1.106;2024-02-14T12:03:10;99921.59;;;11.93;100.00
74960;BME280;63518;49.572;1.106;2024-02-14T12:05:38;99941.25;;;11.91;100.00
74960;BME280;63518;49.572;1.106;2024-02-14T12:08:06;99930.09;;;12.01;100.00
74960;BME280;63518;49.572;1.106;2024-02-14T12:10:35;99951.72;;;12.23;100.00
74960;BME280;63518;49.572;1.106;2024-02-14T12:13:12;99948.13;;;11.94;100.00
74960;BME280;63518;49.572;1.106;2024-02-14T12:15:44;99943.63;;;12.03;100.00
74960;BME280;63518;49.572;1.106;2024-02-14T12:18:11;99946.88;;;12.10;100.00
74960;BME280;63518;49.572;1.106;2024-02-14T12:20:39;99938.41;;;12.01;100.00
74960;BME280;63518;49.572;1.106;2024-02-14T12:23:06;99943.94;;;12.25;100.00
74960;BME280;63518;49.572;1.106;2024-02-14T12:25:33;99929.09;;;12.16;100.00
74960;BME280;63518;49.572;1.106;2024-02-14T12:28:00;99931.22;;;12.00;100.00
74960;BME280;63518;49.572;1.106;2024-02-14T12:30:44;99923.78;;;12.44;100.00
74960;BME280;63518;49.572;1.106;2024-02-14T12:33:24;99926.81;;;11.99;100.00
74960;BME280;63518;49.572;1.106;2024-02-14T12:35:53;99922.69;;;11.97;100.00
74960;BME280;63518;49.572;1.106;2024-02-14T12:38:21;99898.47;;;12.08;100.00
74960;BME280;63518;49.572;1.106;2024-02-14T12:40:50;99920.50;;;12.18;100.00
74960;BME280;63518;49.572;1.106;2024-02-14T12:43:18;99914.19;;;12.36;100.00
74960;BME280;63518;49.572;1.106;2024-02-14T12:45:44;99914.66;;;12.43;100.00
74960;BME280;63518;49.572;1.106;2024-02-14T12:48:12;99902.03;;;12.32;100.00
74960;BME280;63518;49.572;1.106;2024-02-14T12:50:41;99903.84;;;12.23;100.00
74960;BME280;63518;49.572;1.106;2024-02-14T12:53:14;99908.84;;;12.21;100.00
74960;BME280;63518;49.572;1.106;2024-02-14T12:55:41;99900.63;;;12.35;100.00
74960;BME280;63518;49.572;1.106;2024-02-14T12:58:08;99902.97;;;12.27;100.00
74960;BME280;63518;49.572;1.106;2024-02-14T13:00:36;99911.25;;;12.27;100.00
74960;BME280;63518;49.572;1.106;2024-02-14T13:03:04;99906.09;;;12.21;100.00
74960;BME280;63518;49.572;1.106;2024-02-14T13:05:31;99878.94;;;12.42;100.00